createdAt,value
2023-01-11T00:00:46.301Z,27.40
2023-01-11T00:03:13.926Z,37.83
2023-01-11T00:05:42.760Z,43.13
2023-01-11T00:08:10.564Z,40.90
2023-01-11T00:10:38.814Z,45.10
2023-01-11T00:13:06.709Z,27.75
2023-01-11T00:15:36.824Z,39.03
2023-01-11T00:18:04.440Z,36.85
2023-01-11T00:20:32.369Z,44.88
2023-01-11T00:22:59.934Z,29.30
2023-01-11T00:25:27.692Z,42.63
2023-01-11T00:27:55.400Z,45.72
2023-01-11T00:30:23.472Z,38.50
2023-01-11T00:32:59.005Z,35.78
2023-01-11T00:35:27.691Z,31.83
2023-01-11T00:37:55.225Z,38.45
2023-01-11T00:40:24.249Z,39.97
2023-01-11T00:43:10.525Z,41.40
2023-01-11T00:45:56.932Z,39.08
2023-01-11T00:48:24.463Z,23.03
2023-01-11T00:50:55.381Z,26.25
2023-01-11T00:53:22.865Z,40.80
2023-01-11T00:55:50.303Z,37.35
2023-01-11T00:58:17.770Z,33.88
2023-01-11T01:00:45.229Z,34.65
2023-01-11T01:03:12.595Z,29.90
2023-01-11T01:05:40.016Z,34.30
2023-01-11T01:08:07.611Z,29.92
2023-01-11T01:10:35.090Z,44.90
2023-01-11T01:13:21.315Z,32.38
2023-01-11T01:15:48.739Z,37.08
2023-01-11T01:18:16.100Z,42.90
2023-01-11T01:20:43.640Z,44.72
2023-01-11T01:23:10.987Z,35.17
2023-01-11T01:25:38.704Z,46.53
2023-01-11T01:28:06.210Z,30.27
2023-01-11T01:30:33.904Z,35.53
2023-01-11T01:33:01.592Z,40.17
2023-01-11T01:35:29.032Z,43.05
2023-01-11T01:37:56.405Z,39.63
2023-01-11T01:40:23.843Z,36.67
2023-01-11T01:42:55.068Z,40.60
2023-01-11T01:45:26.210Z,29.45
2023-01-11T01:48:01.083Z,13.48
2023-01-11T01:50:36.248Z,28.58
2023-01-11T01:53:12.876Z,33.58
2023-01-11T01:55:45.482Z,37.25
2023-01-11T01:58:18.643Z,27.40
2023-01-11T02:00:46.765Z,29.80
2023-01-11T02:03:22.232Z,23.15
2023-01-11T02:05:52.028Z,30.42
2023-01-11T02:08:35.554Z,29.45
2023-01-11T02:11:04.796Z,28.23
2023-01-11T02:13:46.172Z,30.17
2023-01-11T02:16:13.710Z,31.38
2023-01-11T02:18:42.377Z,29.90
2023-01-11T02:21:26.476Z,28.10
2023-01-11T02:23:53.773Z,29.30
2023-01-11T02:27:00.926Z,34.10
2023-01-11T02:29:44.028Z,41.75
2023-01-11T02:32:17.108Z,42.28
2023-01-11T02:35:11.300Z,40.25
2023-01-11T02:38:03.912Z,53.28
2023-01-11T02:40:37.784Z,27.70
2023-01-11T02:43:37.178Z,41.05
2023-01-11T02:46:30.003Z,29.63
2023-01-11T02:48:57.489Z,42.10
2023-01-11T02:51:35.636Z,20.83
2023-01-11T02:54:07.357Z,23.52
2023-01-11T02:56:39.033Z,15.95
2023-01-11T02:59:11.430Z,29.60
2023-01-11T03:01:53.929Z,27.63
2023-01-11T03:04:30.169Z,26.63
2023-01-11T03:07:11.638Z,27.65
2023-01-11T03:09:45.775Z,20.17
2023-01-11T03:12:31.514Z,24.15
2023-01-11T03:15:05.775Z,38.70
2023-01-11T03:18:17.747Z,72.93
2023-01-11T03:20:52.161Z,219.93
2023-01-11T03:23:23.509Z,350.85
2023-01-11T03:26:17.714Z,221.15
2023-01-11T03:29:16.625Z,309.35
2023-01-11T03:32:06.346Z,272.63
2023-01-11T03:35:10.507Z,557.40
2023-01-11T03:38:00.406Z,213.23
2023-01-11T03:40:27.851Z,93.03
2023-01-11T03:43:12.613Z,77.32
2023-01-11T03:45:53.891Z,34.28
2023-01-11T03:48:36.505Z,72.73
2023-01-11T03:51:07.428Z,113.95
2023-01-11T03:53:37.880Z,51.83
2023-01-11T03:56:10.159Z,93.47
2023-01-11T03:58:37.805Z,46.88
2023-01-11T04:01:05.758Z,88.32
2023-01-11T04:03:33.252Z,116.65
2023-01-11T04:06:02.274Z,135.48
2023-01-11T04:08:31.188Z,188.17
2023-01-11T04:10:58.861Z,38.03
2023-01-11T04:13:30.754Z,232.23
2023-01-11T04:15:58.185Z,43.88
2023-01-11T04:18:25.618Z,83.45
2023-01-11T04:20:53.118Z,28.13
2023-01-11T04:23:20.769Z,43.40
2023-01-11T04:25:48.354Z,38.90
2023-01-11T04:28:15.853Z,31.15
2023-01-11T04:30:43.332Z,56.60
2023-01-11T04:33:13.325Z,89.80
2023-01-11T04:35:41.140Z,258.80
2023-01-11T04:38:08.573Z,181.48
2023-01-11T04:40:35.946Z,449.25
2023-01-11T04:43:03.400Z,451.23
2023-01-11T04:45:31.006Z,249.13
2023-01-11T04:47:58.952Z,592.90
2023-01-11T04:50:27.581Z,499.13
2023-01-11T04:52:54.887Z,448.77
2023-01-11T04:55:22.317Z,239.15
2023-01-11T04:57:50.283Z,260.63
2023-01-11T05:00:18.160Z,90.10
2023-01-11T05:02:45.992Z,464.10
2023-01-11T05:05:13.425Z,127.90
2023-01-11T05:07:41.203Z,70.65
2023-01-11T05:10:09.412Z,157.88
2023-01-11T05:12:37.932Z,76.10
2023-01-11T05:15:05.916Z,64.53
2023-01-11T05:17:33.305Z,72.50
2023-01-11T05:20:00.640Z,50.88
2023-01-11T05:22:28.214Z,51.08
2023-01-11T05:24:55.676Z,44.55
2023-01-11T05:27:23.600Z,55.38
2023-01-11T05:29:51.053Z,36.25
2023-01-11T05:32:18.477Z,49.65
2023-01-11T05:34:46.046Z,53.07
2023-01-11T05:37:13.399Z,50.80
2023-01-11T05:39:40.809Z,58.47
2023-01-11T05:42:08.249Z,35.90
2023-01-11T05:44:55.014Z,43.30
2023-01-11T05:47:23.473Z,44.50
2023-01-11T05:49:50.916Z,47.80
2023-01-11T05:52:18.491Z,43.30
2023-01-11T05:54:46.211Z,12.65
2023-01-11T05:57:13.806Z,34.30
2023-01-11T05:59:41.592Z,45.83
2023-01-11T06:02:13.412Z,26.30
2023-01-11T06:04:40.991Z,44.03
2023-01-11T06:07:51.335Z,27.55
2023-01-11T06:10:19.854Z,16.58
2023-01-11T06:12:52.631Z,32.60
2023-01-11T06:15:21.196Z,23.77
2023-01-11T06:18:03.576Z,2.83
2023-01-11T06:20:31.794Z,30.10
2023-01-11T06:22:59.966Z,41.93
2023-01-11T06:25:30.748Z,35.30
2023-01-11T06:28:04.167Z,39.53
2023-01-11T06:30:32.584Z,35.45
2023-01-11T06:33:07.511Z,35.07
2023-01-11T06:35:46.317Z,37.88
2023-01-11T06:38:16.854Z,37.13
2023-01-11T06:41:01.414Z,29.05
2023-01-11T06:43:35.675Z,38.50
2023-01-11T06:46:05.532Z,36.35
2023-01-11T06:48:34.514Z,35.80
2023-01-11T06:51:08.178Z,32.05
2023-01-11T06:53:37.331Z,35.80
2023-01-11T06:56:05.716Z,37.20
2023-01-11T06:58:34.153Z,20.45
2023-01-11T07:01:04.948Z,38.38
2023-01-11T07:03:40.793Z,30.90
2023-01-11T07:06:15.809Z,35.83
2023-01-11T07:08:44.448Z,40.47
2023-01-11T07:11:12.230Z,20.13
2023-01-11T07:13:41.661Z,19.37
2023-01-11T07:16:15.662Z,16.50
2023-01-11T07:18:48.367Z,36.23
2023-01-11T07:21:18.359Z,36.40
2023-01-11T07:23:49.763Z,23.13
2023-01-11T07:26:23.348Z,23.90
2023-01-11T07:28:50.967Z,40.23
2023-01-11T07:31:25.549Z,25.02
2023-01-11T07:33:56.241Z,21.63
2023-01-11T07:36:23.888Z,27.83
2023-01-11T07:38:52.760Z,27.60
2023-01-11T07:42:26.489Z,40.60
2023-01-11T07:44:56.222Z,23.63
2023-01-11T07:47:43.946Z,22.58
2023-01-11T07:50:22.157Z,24.58
2023-01-11T07:52:52.594Z,26.40
2023-01-11T08:00:49.921Z,29.33
2023-01-11T08:03:19.590Z,33.30
2023-01-11T08:05:55.144Z,21.03
2023-01-11T08:08:31.852Z,37.20
2023-01-11T08:14:34.248Z,19.30
2023-01-11T08:17:06.784Z,33.67
2023-01-11T08:19:39.634Z,20.85
2023-01-11T08:22:16.265Z,34.85
2023-01-11T08:27:30.738Z,42.70
2023-01-11T08:30:03.925Z,40.38
2023-01-11T08:32:36.806Z,46.00
2023-01-11T08:35:06.215Z,27.60
2023-01-11T08:37:36.736Z,34.57
2023-01-11T08:40:07.148Z,30.80
2023-01-11T08:42:41.174Z,22.00
2023-01-11T08:45:13.766Z,25.57
2023-01-11T08:50:27.908Z,29.30
2023-01-11T08:53:22.634Z,33.23
2023-01-11T08:55:56.407Z,33.43
2023-01-11T08:58:26.345Z,16.60
2023-01-11T09:00:59.402Z,21.03
2023-01-11T09:08:56.738Z,20.30
2023-01-11T09:20:40.373Z,24.50
2023-01-11T09:49:34.817Z,22.40
2023-01-11T09:55:28.013Z,20.17
2023-01-11T09:58:35.005Z,15.13
2023-01-11T10:04:42.179Z,18.47
2023-01-11T10:18:29.961Z,23.60
2023-01-11T10:18:29.963Z,17.17
2023-01-11T10:21:57.002Z,13.40
2023-01-11T10:25:03.009Z,24.37
2023-01-11T10:36:54.134Z,19.07
2023-01-11T10:39:45.633Z,23.77
2023-01-11T10:43:18.519Z,20.87
2023-01-11T10:46:02.888Z,28.73
2023-01-11T10:48:32.281Z,28.37
2023-01-11T10:51:41.036Z,25.40
2023-01-11T10:54:30.609Z,9.53
2023-01-11T10:57:09.346Z,19.93
2023-01-11T11:03:41.846Z,20.33
2023-01-11T11:26:03.367Z,25.43
2023-01-11T11:28:33.872Z,32.83
2023-01-11T11:33:40.018Z,30.80
2023-01-11T11:39:22.069Z,28.08
2023-01-11T11:41:52.575Z,33.67
2023-01-11T11:47:35.910Z,40.38
2023-01-11T12:20:42.960Z,43.10
2023-01-11T12:23:18.661Z,42.40
2023-01-11T12:29:00.844Z,38.17
2023-01-11T12:32:01.011Z,28.33
2023-01-11T12:34:56.213Z,28.10
2023-01-11T12:38:11.356Z,36.97
2023-01-11T12:41:02.084Z,38.73
2023-01-11T12:44:17.174Z,32.93
2023-01-11T12:47:17.845Z,27.17
2023-01-11T12:50:12.735Z,34.27
2023-01-11T12:52:58.591Z,33.33
2023-01-11T12:55:45.236Z,22.83
2023-01-11T12:58:18.420Z,23.53
2023-01-11T13:01:19.532Z,26.37
2023-01-11T13:04:11.840Z,20.07
2023-01-11T13:07:04.658Z,24.50
2023-01-11T13:10:02.644Z,24.17
2023-01-11T13:13:27.198Z,23.00
2023-01-11T13:15:55.225Z,25.20
2023-01-11T13:18:45.569Z,23.40
2023-01-11T13:21:31.693Z,18.33
2023-01-11T13:24:03.663Z,21.03
2023-01-11T13:26:44.395Z,24.93
2023-01-11T13:29:29.071Z,17.27
2023-01-11T13:32:01.623Z,18.50
2023-01-11T13:34:56.385Z,19.00
2023-01-11T13:37:32.381Z,21.53
2023-01-11T13:40:10.574Z,21.47
2023-01-11T13:42:43.473Z,18.70
2023-01-11T13:45:23.912Z,17.03
2023-01-11T13:47:56.007Z,11.17
2023-01-11T13:51:04.690Z,13.13
2023-01-11T13:53:46.060Z,15.40
2023-01-11T13:56:23.218Z,14.43
2023-01-11T13:59:16.597Z,14.07
2023-01-11T14:01:50.440Z,13.93
2023-01-11T14:04:27.863Z,15.97
2023-01-11T14:07:13.760Z,8.93
2023-01-11T14:10:03.621Z,12.87
2023-01-11T14:12:54.540Z,15.93
2023-01-11T14:15:41.230Z,4.90
2023-01-11T14:18:13.885Z,11.33
2023-01-11T14:20:54.123Z,5.97
2023-01-11T14:23:28.586Z,10.20
2023-01-11T14:26:41.437Z,7.00
2023-01-11T14:29:36.747Z,9.27
2023-01-11T14:32:04.102Z,12.83
2023-01-11T14:34:57.016Z,10.67
2023-01-11T14:37:36.482Z,8.37
2023-01-11T14:40:12.762Z,11.07
2023-01-11T14:43:17.367Z,10.83
2023-01-11T14:46:12.720Z,10.63
2023-01-11T14:49:11.484Z,12.73
2023-01-11T14:51:45.280Z,11.60
2023-01-11T14:54:21.598Z,12.50
2023-01-11T14:56:53.288Z,10.07
2023-01-11T14:59:23.765Z,12.00
2023-01-11T15:02:03.511Z,14.60
2023-01-11T15:04:58.790Z,9.50
2023-01-11T15:07:36.671Z,10.50
2023-01-11T15:19:23.159Z,9.90
2023-01-11T15:21:53.706Z,15.30
2023-01-11T15:24:25.333Z,10.37
2023-01-11T15:26:59.043Z,6.53
2023-01-11T15:29:29.683Z,16.23
2023-01-11T15:32:05.560Z,13.00
2023-01-11T15:34:32.937Z,9.90
2023-01-11T15:37:00.422Z,10.93
2023-01-11T15:42:14.673Z,12.53
2023-01-11T15:45:19.767Z,7.80
2023-01-11T15:47:59.137Z,11.77
2023-01-11T15:51:03.215Z,10.13
2023-01-11T15:53:49.532Z,14.33
2023-01-11T15:56:35.780Z,12.57
2023-01-11T15:59:21.954Z,11.93
2023-01-11T16:02:14.392Z,11.30
2023-01-11T16:08:27.127Z,8.50
2023-01-11T16:11:17.250Z,18.03
2023-01-11T16:14:02.944Z,13.73
2023-01-11T16:16:39.356Z,13.37
2023-01-11T16:19:18.188Z,7.07
2023-01-11T16:22:10.421Z,12.80
2023-01-11T16:24:45.133Z,13.67
2023-01-11T16:38:04.324Z,9.20
2023-01-11T16:40:36.809Z,13.77
2023-01-11T16:43:16.185Z,15.83
2023-01-11T16:54:28.772Z,8.60
2023-01-11T16:56:57.461Z,15.27
2023-01-11T16:59:31.128Z,10.97
2023-01-11T17:02:01.140Z,15.13
2023-01-11T17:07:21.067Z,7.50
2023-01-11T17:09:48.481Z,19.53
2023-01-11T17:12:26.227Z,19.50
2023-01-11T17:15:02.823Z,15.40
2023-01-11T17:17:38.122Z,13.80
2023-01-11T17:20:19.047Z,13.27
2023-01-11T17:22:48.899Z,16.83
2023-01-11T17:25:37.280Z,6.07
2023-01-11T17:28:18.416Z,16.53
2023-01-11T17:33:36.798Z,9.40
2023-01-11T17:36:04.715Z,14.90
2023-01-11T17:38:32.904Z,12.57
2023-01-11T17:41:01.384Z,16.10
2023-01-11T17:43:48.176Z,11.33
2023-01-11T17:46:25.315Z,20.17
2023-01-11T17:48:58.474Z,19.60
2023-01-11T17:51:28.631Z,21.07
2023-01-11T17:53:56.077Z,16.37
2023-01-11T17:56:32.547Z,17.97
2023-01-11T17:59:16.347Z,18.23
2023-01-11T18:01:57.814Z,14.33
2023-01-11T18:04:27.464Z,14.63
2023-01-11T18:07:04.423Z,23.17
2023-01-11T18:09:34.107Z,11.60
2023-01-11T18:12:14.636Z,21.57
2023-01-11T18:14:57.063Z,13.00
2023-01-11T18:17:42.210Z,12.87
2023-01-11T18:20:15.706Z,18.63
2023-01-11T18:22:57.489Z,20.80
2023-01-11T18:25:26.006Z,20.63
2023-01-11T18:28:22.222Z,20.07
2023-01-11T18:30:56.697Z,18.97
2023-01-11T18:33:31.568Z,25.57
2023-01-11T18:36:01.988Z,22.50
2023-01-11T18:38:32.351Z,18.83
2023-01-11T18:41:25.539Z,12.10
2023-01-11T18:43:53.687Z,21.70
2023-01-11T18:46:21.491Z,18.40
2023-01-11T18:48:48.971Z,20.80
2023-01-11T18:51:25.350Z,11.83
2023-01-11T18:53:54.322Z,22.03
2023-01-11T18:56:21.855Z,13.10
2023-01-11T18:58:49.257Z,19.03
2023-01-11T19:01:16.975Z,14.03
2023-01-11T19:03:51.525Z,22.00
2023-01-11T19:06:21.275Z,24.57
2023-01-11T19:08:48.874Z,18.97
2023-01-11T19:11:17.067Z,17.93
2023-01-11T19:16:17.799Z,19.60
2023-01-11T19:18:46.524Z,14.53
2023-01-11T19:21:14.316Z,7.37
2023-01-11T19:23:42.054Z,14.67
2023-01-11T19:26:09.415Z,23.07
2023-01-11T19:31:12.474Z,20.40
2023-01-11T19:33:40.512Z,27.57
2023-01-11T19:36:08.425Z,13.67
2023-01-11T19:38:37.082Z,19.03
2023-01-11T19:41:07.186Z,14.10
2023-01-11T19:43:35.512Z,16.97
2023-01-11T19:46:04.217Z,9.17
2023-01-11T19:48:35.271Z,15.57
2023-01-11T19:51:04.715Z,22.63
2023-01-11T19:53:32.623Z,25.87
2023-01-11T19:56:01.898Z,21.57
2023-01-11T19:58:29.683Z,10.63
2023-01-11T20:00:57.890Z,15.23
2023-01-11T20:03:25.885Z,22.83
2023-01-11T20:05:53.251Z,16.70
2023-01-11T20:08:22.264Z,21.43
2023-01-11T20:10:50.200Z,14.07
2023-01-11T20:13:17.566Z,18.90
2023-01-11T20:15:45.008Z,13.40
2023-01-11T20:18:13.350Z,18.03
2023-01-11T20:20:40.738Z,15.33
2023-01-11T20:23:08.075Z,13.73
2023-01-11T20:25:35.757Z,11.37
2023-01-11T20:28:03.252Z,15.83
2023-01-11T20:30:30.589Z,13.23
2023-01-11T20:32:58.036Z,11.37
2023-01-11T20:35:26.463Z,17.60
2023-01-11T20:37:54.128Z,13.47
2023-01-11T20:40:21.428Z,17.37
2023-01-11T20:42:48.871Z,11.83
2023-01-11T20:45:16.231Z,16.00
2023-01-11T20:47:43.904Z,13.43
2023-01-11T20:50:11.464Z,13.10
2023-01-11T20:52:38.788Z,12.73
2023-01-11T20:55:06.784Z,7.13
2023-01-11T20:57:34.106Z,12.33
2023-01-11T21:00:01.518Z,10.83
2023-01-11T21:02:28.960Z,17.40
2023-01-11T21:04:57.281Z,14.10
2023-01-11T21:07:24.558Z,12.47
2023-01-11T21:09:53.954Z,11.27
2023-01-11T21:17:52.154Z,13.60
2023-01-11T21:20:24.868Z,3.77
2023-01-11T21:22:56.460Z,9.63
2023-01-11T21:25:26.424Z,10.43
2023-01-11T21:27:54.099Z,10.23
2023-01-11T21:33:12.695Z,9.90
2023-01-11T21:41:45.348Z,11.50
2023-01-11T21:44:21.084Z,6.53
2023-01-11T21:46:52.328Z,7.00
2023-01-11T21:55:02.532Z,9.50
2023-01-11T21:57:32.871Z,6.73
2023-01-11T22:00:02.722Z,10.77
2023-01-11T22:10:39.976Z,7.43
2023-01-11T22:13:15.420Z,8.67
2023-01-11T22:32:52.505Z,8.77
2023-01-11T22:35:19.910Z,9.40
2023-01-11T22:37:49.109Z,8.07
2023-01-11T22:40:16.692Z,7.60
2023-01-11T22:42:44.018Z,7.17
2023-01-11T22:45:12.039Z,10.47
2023-01-11T22:47:39.360Z,8.13
2023-01-11T22:50:06.993Z,6.87
2023-01-11T22:52:34.638Z,4.03
2023-01-11T22:55:02.654Z,8.73
2023-01-11T22:57:30.041Z,7.43
2023-01-11T22:59:58.920Z,3.50
2023-01-11T23:02:26.459Z,8.77
2023-01-11T23:04:53.778Z,4.73
2023-01-11T23:07:21.229Z,4.07
2023-01-11T23:09:48.777Z,5.70
2023-01-11T23:12:35.035Z,4.33
2023-01-11T23:15:02.496Z,6.77
2023-01-11T23:17:29.829Z,7.13
2023-01-11T23:19:57.294Z,11.13
2023-01-11T23:22:24.800Z,4.83
2023-01-11T23:24:52.211Z,7.10
2023-01-11T23:27:19.716Z,7.53
2023-01-11T23:29:47.173Z,8.07
2023-01-11T23:32:14.604Z,6.80
2023-01-11T23:34:42.095Z,4.83
2023-01-11T23:37:09.704Z,4.73
2023-01-11T23:39:37.157Z,4.47
2023-01-11T23:42:23.462Z,6.30
2023-01-11T23:44:50.808Z,2.80
2023-01-11T23:47:29.757Z,4.97
2023-01-11T23:50:00.561Z,5.23
2023-01-11T23:52:30.846Z,3.80
2023-01-11T23:54:58.424Z,8.13
2023-01-11T23:57:26.400Z,3.80
2023-01-11T23:59:53.855Z,6.90
